Time;durP1;ratioP1;P1;durP2;ratioP2;P2;SDS_P1;SDS_P2;PMS_P1;PMS_P2;Temp;Humidity;BMP_temperature;BMP_pressure;BME280_temperature;BME280_humidity;BME280_pressure;Samples;Min_cycle;Max_cycle;Signal;HPM_P1;HPM_P2
2021/05/15 00:01:50;;;;;;;14.83;13.17;;;;;;;11.68;100.00;100623.13;1835703;78;26304;-74
2021/05/15 00:04:20;;;;;;;15.17;13.57;;;;;;;11.71;100.00;100608.61;1835658;78;26262;-74
2021/05/15 00:06:50;;;;;;;15.73;13.60;;;;;;;11.73;100.00;100603.02;1835589;78;26255;-75
2021/05/15 00:09:20;;;;;;;17.07;13.60;;;;;;;11.65;100.00;100600.88;1835686;78;26246;-74
2021/05/15 00:11:50;;;;;;;14.70;12.67;;;;;;;11.58;100.00;100593.47;1835673;78;26815;-74
2021/05/15 00:14:20;;;;;;;17.47;12.93;;;;;;;11.57;100.00;100593.76;1835707;78;26314;-74
2021/05/15 00:16:50;;;;;;;16.17;14.43;;;;;;;11.52;100.00;100582.13;1835716;78;26234;-75
2021/05/15 00:19:19;;;;;;;15.83;14.17;;;;;;;11.53;100.00;100581.02;1835831;78;26334;-75
2021/05/15 00:21:49;;;;;;;17.80;14.77;;;;;;;11.50;100.00;100578.84;1835706;78;26753;-74
2021/05/15 00:24:19;;;;;;;17.47;14.93;;;;;;;11.50;100.00;100568.27;1835632;78;26709;-74
2021/05/15 00:26:49;;;;;;;16.73;13.83;;;;;;;11.50;100.00;100576.05;1835772;78;26317;-75
2021/05/15 00:29:19;;;;;;;16.90;14.57;;;;;;;11.50;100.00;100564.93;1835638;78;26745;-75
2021/05/15 00:31:48;;;;;;;16.33;14.33;;;;;;;11.50;100.00;100574.67;1835709;78;26328;-75
2021/05/15 00:34:19;;;;;;;18.30;15.47;;;;;;;11.53;100.00;100573.23;1835637;78;26306;-75
2021/05/15 00:36:49;;;;;;;17.47;15.20;;;;;;;11.45;100.00;100566.94;1835628;78;26268;-75
2021/05/15 00:39:20;;;;;;;18.30;15.30;;;;;;;11.43;100.00;100560.27;1835707;78;26267;-75
2021/05/15 00:41:50;;;;;;;19.03;16.63;;;;;;;11.38;100.00;100556.20;1835874;78;26226;-75
2021/05/15 00:44:30;;;;;;;19.40;16.13;;;;;;;11.38;100.00;100545.08;1835787;78;26806;-75
2021/05/15 00:47:00;;;;;;;18.80;15.97;;;;;;;11.31;100.00;100550.15;1835891;78;26214;-74
2021/05/15 00:49:30;;;;;;;19.77;16.23;;;;;;;11.32;100.00;100543.47;1835659;78;26250;-75
2021/05/15 00:51:59;;;;;;;20.70;16.20;;;;;;;11.35;100.00;100545.09;1835682;78;26674;-74
2021/05/15 00:54:29;;;;;;;19.90;16.67;;;;;;;11.30;100.00;100544.31;1835621;78;26748;-74
2021/05/15 00:57:00;;;;;;;19.73;16.33;;;;;;;11.31;100.00;100540.42;1835688;78;26246;-74
2021/05/15 00:59:30;;;;;;;19.53;15.83;;;;;;;11.28;100.00;100539.63;1835619;78;26718;-74
2021/05/15 01:02:00;;;;;;;17.90;15.40;;;;;;;11.22;100.00;100542.20;1835712;78;26430;-74
2021/05/15 01:04:30;;;;;;;18.40;14.77;;;;;;;11.21;100.00;100541.95;1835636;78;26807;-74
2021/05/15 01:07:01;;;;;;;17.40;15.07;;;;;;;11.15;100.00;100531.45;1835753;78;26706;-74
2021/05/15 01:09:31;;;;;;;15.80;14.03;;;;;;;11.07;100.00;100529.33;1835593;78;26301;-74
2021/05/15 01:12:04;;;;;;;20.37;16.07;;;;;;;11.06;100.00;100535.17;1835642;78;26744;-74
2021/05/15 01:14:36;;;;;;;18.90;15.50;;;;;;;11.18;100.00;100525.84;1835606;78;26337;-74
2021/05/15 01:17:09;;;;;;;16.77;14.97;;;;;;;11.19;100.00;100526.12;1835633;78;26756;-74
2021/05/15 01:19:39;;;;;;;19.60;15.37;;;;;;;11.15;100.00;100521.72;1835631;78;26230;-74
2021/05/15 01:22:10;;;;;;;19.13;15.33;;;;;;;11.19;100.00;100517.22;1835767;78;26259;-74
2021/05/15 01:24:43;;;;;;;16.80;14.37;;;;;;;11.15;100.00;100507.82;1835728;78;26309;-74
2021/05/15 01:27:15;;;;;;;15.30;13.67;;;;;;;11.18;100.00;100507.22;1835938;78;26239;-74
2021/05/15 01:29:45;;;;;;;16.23;13.93;;;;;;;11.02;100.00;100506.31;1835924;78;26724;-74
2021/05/15 01:32:15;;;;;;;14.97;12.97;;;;;;;10.97;100.00;100497.48;1835838;78;26321;-73
2021/05/15 01:34:45;;;;;;;15.73;13.77;;;;;;;10.99;100.00;100495.25;1835820;78;26666;-74
2021/05/15 01:37:15;;;;;;;17.67;13.93;;;;;;;10.95;100.00;100489.42;1835812;78;26352;-74
2021/05/15 01:39:45;;;;;;;15.03;13.43;;;;;;;10.98;100.00;100480.25;1835879;78;26709;-74
2021/05/15 01:42:15;;;;;;;18.50;14.63;;;;;;;10.85;100.00;100472.90;1835837;78;26332;-74
2021/05/15 01:44:44;;;;;;;15.87;13.53;;;;;;;10.92;100.00;100475.30;1835810;78;26262;-74
2021/05/15 01:47:14;;;;;;;17.33;14.10;;;;;;;10.85;100.00;100468.73;1835887;78;26247;-74
2021/05/15 01:49:45;;;;;;;15.33;13.27;;;;;;;10.76;100.00;100463.56;1835795;78;26746;-74
2021/05/15 01:52:15;;;;;;;16.70;14.90;;;;;;;10.82;100.00;100459.61;1835985;78;26255;-74
2021/05/15 01:54:47;;;;;;;16.90;14.20;;;;;;;10.83;100.00;100454.85;1835940;78;26309;-74
2021/05/15 01:57:16;;;;;;;15.73;14.17;;;;;;;10.82;100.00;100442.94;1836003;78;26291;-74
2021/05/15 01:59:46;;;;;;;17.87;14.87;;;;;;;10.76;100.00;100445.50;1836010;78;26265;-74
2021/05/15 02:02:16;;;;;;;18.53;14.80;;;;;;;10.66;100.00;100434.50;1835895;78;26333;-74
2021/05/15 02:04:46;;;;;;;16.33;14.33;;;;;;;10.70;100.00;100427.78;1835938;78;26407;-74
2021/05/15 02:07:15;;;;;;;17.07;14.20;;;;;;;10.68;100.00;100421.16;1835945;78;26290;-75
2021/05/15 02:09:45;;;;;;;17.57;14.40;;;;;;;10.62;100.00;100415.95;1835829;78;26330;-74
2021/05/15 02:12:15;;;;;;;17.57;14.37;;;;;;;10.47;100.00;100413.64;1835944;78;26255;-74
2021/05/15 02:14:45;;;;;;;19.33;16.13;;;;;;;10.44;100.00;100412.81;1836117;78;26214;-74
2021/05/15 02:17:15;;;;;;;20.53;16.80;;;;;;;10.47;100.00;100413.64;1835870;78;26252;-74
2021/05/15 02:19:45;;;;;;;21.47;17.67;;;;;;;10.47;100.00;100408.64;1835926;78;26255;-74
2021/05/15 02:22:14;;;;;;;21.97;17.27;;;;;;;10.53;100.00;100407.44;1835959;78;26254;-76
2021/05/15 02:24:44;;;;;;;21.30;17.20;;;;;;;10.54;100.00;100389.66;1835937;78;26693;-75
2021/05/15 02:27:14;;;;;;;23.67;17.73;;;;;;;10.48;100.00;100392.25;1835960;78;26685;-75
2021/05/15 02:29:44;;;;;;;25.13;19.37;;;;;;;10.42;100.00;100391.48;1836031;78;26285;-74
2021/05/15 02:32:13;;;;;;;25.53;19.50;;;;;;;10.46;100.00;100400.04;1835945;78;26724;-74
2021/05/15 02:34:43;;;;;;;23.30;18.03;;;;;;;10.51;100.00;100393.04;1835916;78;26205;-74
2021/05/15 02:37:13;;;;;;;22.73;18.90;;;;;;;10.57;100.00;100386.28;1835911;78;26741;-74
2021/05/15 02:39:43;;;;;;;24.47;17.70;;;;;;;10.56;100.00;100378.27;1835997;78;26235;-74
2021/05/15 02:42:13;;;;;;;23.83;18.20;;;;;;;10.52;100.00;100383.59;1835919;78;26317;-74
2021/05/15 02:44:43;;;;;;;21.13;17.30;;;;;;;10.52;100.00;100372.48;1835958;78;26705;-74
2021/05/15 02:47:13;;;;;;;22.60;17.30;;;;;;;10.54;100.00;100373.56;1835935;78;26313;-74
2021/05/15 02:49:43;;;;;;;22.50;17.73;;;;;;;10.58;100.00;100369.89;1835910;78;26257;-74
2021/05/15 02:52:13;;;;;;;23.80;17.60;;;;;;;10.50;100.00;100363.05;1835923;78;26263;-74
2021/05/15 02:54:43;;;;;;;23.67;18.70;;;;;;;10.48;100.00;100361.71;1835927;78;26670;-74
2021/05/15 02:57:13;;;;;;;22.73;16.80;;;;;;;10.56;100.00;100354.66;1835905;78;26685;-74
2021/05/15 02:59:42;;;;;;;22.33;18.43;;;;;;;10.50;100.00;100353.89;1835904;78;26348;-74
2021/05/15 03:02:12;;;;;;;21.47;17.70;;;;;;;10.52;100.00;100343.89;1835879;78;26357;-74
2021/05/15 03:04:42;;;;;;;21.03;17.50;;;;;;;10.50;100.00;100351.12;1835896;78;26239;-74
2021/05/15 03:07:12;;;;;;;21.77;16.80;;;;;;;10.50;100.00;100341.39;1835914;78;26375;-74
2021/05/15 03:09:43;;;;;;;21.83;17.47;;;;;;;10.57;100.00;100338.28;1835939;78;26769;-74
2021/05/15 03:12:13;;;;;;;24.10;18.33;;;;;;;10.50;100.00;100339.45;1835916;78;26246;-74
2021/05/15 03:14:43;;;;;;;23.20;18.67;;;;;;;10.56;100.00;100333.84;1835911;78;26292;-74
2021/05/15 03:17:13;;;;;;;24.07;17.13;;;;;;;10.49;100.00;100324.47;1835887;78;26324;-74
2021/05/15 03:19:43;;;;;;;23.67;17.93;;;;;;;10.53;100.00;100321.91;1835912;78;26301;-74
2021/05/15 03:22:13;;;;;;;25.53;17.83;;;;;;;10.46;100.00;100316.18;1836004;78;26707;-74
2021/05/15 03:24:43;;;;;;;23.33;17.77;;;;;;;10.48;100.00;100320.86;1835956;78;26371;-74
2021/05/15 03:27:13;;;;;;;24.20;18.47;;;;;;;10.53;100.00;100315.80;1835919;78;26714;-74
2021/05/15 03:29:43;;;;;;;22.50;18.80;;;;;;;10.42;100.00;100315.69;1835929;78;26235;-74
2021/05/15 03:32:33;;;;;;;23.93;18.97;;;;;;;10.41;100.00;100313.46;1767197;81;33600;-74
2021/05/15 03:35:04;;;;;;;19.93;16.47;;;;;;;10.46;100.00;100312.02;1776534;81;26349;-73
2021/05/15 03:37:33;;;;;;;23.60;18.27;;;;;;;10.45;100.00;100313.13;1776379;81;26278;-73
2021/05/15 03:40:04;;;;;;;22.23;17.93;;;;;;;10.47;100.00;100306.73;1776325;81;26267;-73
2021/05/15 03:42:34;;;;;;;23.00;17.63;;;;;;;10.43;100.00;100304.84;1776430;81;26339;-73
2021/05/15 03:45:05;;;;;;;23.20;18.17;;;;;;;10.45;100.00;100303.97;1776399;81;26263;-74
2021/05/15 03:47:35;;;;;;;25.37;18.17;;;;;;;10.42;100.00;100298.47;1776338;81;26678;-74
2021/05/15 03:50:06;;;;;;;22.80;18.13;;;;;;;10.48;100.00;100294.48;1776319;81;26330;-74
2021/05/15 03:52:36;;;;;;;25.87;19.03;;;;;;;10.48;100.00;100290.31;1776289;81;26255;-74
2021/05/15 03:55:08;;;;;;;24.60;18.67;;;;;;;10.42;100.00;100290.14;1776380;81;26267;-74
2021/05/15 03:57:38;;;;;;;23.10;18.67;;;;;;;10.45;100.00;100282.59;1776275;81;26706;-74
2021/05/15 04:00:10;;;;;;;23.47;19.60;;;;;;;10.50;100.00;100283.91;1764909;80;938238;-75
2021/05/15 04:02:41;;;;;;;26.60;18.83;;;;;;;10.51;100.00;100281.97;1792803;79;26269;-74
2021/05/15 04:05:12;;;;;;;26.37;19.40;;;;;;;10.53;100.00;100278.31;1803726;79;26719;-74
2021/05/15 04:07:42;;;;;;;26.17;20.27;;;;;;;10.52;100.00;100273.08;1824378;78;26646;-74
2021/05/15 04:10:13;;;;;;;25.53;21.13;;;;;;;10.55;100.00;100273.86;1824120;79;26754;-74
2021/05/15 04:12:48;;;;;;;27.77;20.63;;;;;;;10.53;100.00;100266.38;1824272;79;26786;-74
2021/05/15 04:15:33;;;;;;;31.30;21.23;;;;;;;10.48;100.00;100267.30;1824197;79;26256;-74
2021/05/15 04:17:51;;;;;;;27.23;20.80;;;;;;;10.52;100.00;100258.64;1824323;78;26339;-74
2021/05/15 04:20:21;;;;;;;28.07;20.33;;;;;;;10.59;100.00;100255.47;1824267;79;26285;-74
2021/05/15 04:22:50;;;;;;;29.87;20.80;;;;;;;10.47;100.00;100250.37;1824266;79;26702;-74
2021/05/15 04:25:22;;;;;;;27.73;20.90;;;;;;;10.47;100.00;100258.14;1824158;79;26256;-74
2021/05/15 04:27:51;;;;;;;25.70;21.03;;;;;;;10.40;100.00;100253.50;1824345;79;26398;-74
2021/05/15 04:30:22;;;;;;;25.97;21.47;;;;;;;10.33;100.00;100241.95;1824267;79;26251;-75
2021/05/15 04:32:52;;;;;;;28.33;21.57;;;;;;;10.42;100.00;100241.55;1824272;79;26733;-75
2021/05/15 04:35:23;;;;;;;32.47;23.30;;;;;;;10.43;100.00;100241.83;1824195;79;26239;-74
2021/05/15 04:37:53;;;;;;;31.23;22.17;;;;;;;10.35;100.00;100227.78;1824184;79;26259;-74
2021/05/15 04:40:23;;;;;;;32.13;23.87;;;;;;;10.39;100.00;100228.28;1824178;79;26733;-74
2021/05/15 04:42:53;;;;;;;30.63;23.27;;;;;;;10.45;100.00;100226.23;1824151;79;26356;-74
2021/05/15 04:45:26;;;;;;;32.57;21.90;;;;;;;10.40;100.00;100227.13;1824160;79;26325;-74
2021/05/15 04:47:55;;;;;;;31.57;22.83;;;;;;;10.39;100.00;100226.06;1824590;79;26218;-74
2021/05/15 04:50:25;;;;;;;32.97;23.23;;;;;;;10.40;100.00;100227.13;1824254;79;26240;-74
2021/05/15 04:52:55;;;;;;;31.87;23.47;;;;;;;10.37;100.00;100220.80;1824256;79;26713;-74
2021/05/15 04:55:25;;;;;;;34.50;23.73;;;;;;;10.33;100.00;100223.91;1824130;79;26418;-74
2021/05/15 04:57:57;;;;;;;32.17;23.90;;;;;;;10.30;100.00;100213.97;1824178;79;26333;-74
2021/05/15 05:00:27;;;;;;;33.17;23.70;;;;;;;10.23;100.00;100210.16;1824372;79;26721;-74
2021/05/15 05:02:57;;;;;;;32.57;23.50;;;;;;;10.38;100.00;100211.35;1824118;79;26313;-74
2021/05/15 05:05:27;;;;;;;34.23;24.67;;;;;;;10.41;100.00;100204.36;1824251;79;26697;-74
2021/05/15 05:07:57;;;;;;;34.33;23.40;;;;;;;10.40;100.00;100202.70;1824255;79;26306;-74
2021/05/15 05:10:28;;;;;;;28.43;21.80;;;;;;;10.26;100.00;100205.42;1824201;79;26794;-74
2021/05/15 05:12:57;;;;;;;33.83;24.93;;;;;;;10.45;100.00;100204.02;1824188;79;26322;-74
2021/05/15 05:15:27;;;;;;;31.73;22.50;;;;;;;10.46;100.00;100202.91;1824245;79;26753;-74
2021/05/15 05:17:57;;;;;;;32.10;22.67;;;;;;;10.34;100.00;100200.58;1824237;79;26251;-75
2021/05/15 05:20:27;;;;;;;30.30;22.20;;;;;;;10.28;100.00;100192.05;1824183;79;26231;-75
2021/05/15 05:22:58;;;;;;;29.30;21.30;;;;;;;10.33;100.00;100193.93;1824232;79;26251;-73
2021/05/15 05:25:27;;;;;;;31.00;23.17;;;;;;;10.33;100.00;100193.37;1824320;79;26239;-74
2021/05/15 05:27:58;;;;;;;32.10;22.97;;;;;;;10.28;100.00;100190.66;1824250;79;26251;-74
2021/05/15 05:30:29;;;;;;;35.93;23.60;;;;;;;10.36;100.00;100184.44;1824255;79;26267;-74
2021/05/15 05:33:00;;;;;;;31.17;21.00;;;;;;;10.37;100.00;100186.66;1824269;79;26361;-74
2021/05/15 05:35:34;;;;;;;32.60;22.50;;;;;;;10.43;100.00;100186.30;1824322;79;26718;-75
2021/05/15 05:38:01;;;;;;;30.80;21.87;;;;;;;10.45;100.00;100188.75;1824020;78;26287;-74
2021/05/15 05:40:31;;;;;;;34.07;22.70;;;;;;;10.46;100.00;100187.63;1824278;79;26394;-74
2021/05/15 05:43:01;;;;;;;30.50;21.63;;;;;;;10.38;100.00;100181.38;1824333;79;26258;-74
2021/05/15 05:45:30;;;;;;;32.50;23.17;;;;;;;10.35;100.00;100181.42;1824419;79;26259;-73
2021/05/15 05:48:00;;;;;;;28.73;21.13;;;;;;;10.55;100.00;100170.56;1824347;79;26715;-74
2021/05/15 05:50:31;;;;;;;30.37;22.17;;;;;;;10.54;100.00;100171.67;1824262;79;26232;-73
2021/05/15 05:53:00;;;;;;;29.87;20.90;;;;;;;10.60;100.00;100159.37;1824232;79;26662;-74
2021/05/15 05:55:30;;;;;;;32.07;21.90;;;;;;;10.58;100.00;100160.23;1824359;79;26240;-74
2021/05/15 05:58:00;;;;;;;30.30;21.70;;;;;;;10.49;100.00;100155.92;1824346;79;26700;-74
2021/05/15 06:00:30;;;;;;;29.70;21.50;;;;;;;10.54;100.00;100150.02;1824244;79;26214;-74
2021/05/15 06:03:00;;;;;;;29.97;21.30;;;;;;;10.54;100.00;100142.52;1824324;79;26290;-74
2021/05/15 06:05:30;;;;;;;28.07;20.47;;;;;;;10.53;100.00;100132.53;1824263;79;26226;-74
2021/05/15 06:08:07;;;;;;;32.77;21.67;;;;;;;10.45;100.00;100142.94;1824428;79;26347;-73
2021/05/15 06:10:38;;;;;;;30.33;21.37;;;;;;;10.46;100.00;100139.88;1824365;79;26297;-73
2021/05/15 06:13:09;;;;;;;28.30;20.50;;;;;;;10.54;100.00;100136.14;1824375;79;26408;-72
2021/05/15 06:15:40;;;;;;;30.20;20.97;;;;;;;10.50;100.00;100135.92;1824531;79;26239;-73
2021/05/15 06:18:10;;;;;;;30.57;20.37;;;;;;;10.50;100.00;100130.38;1824348;79;26743;-73
2021/05/15 06:20:39;;;;;;;30.33;21.40;;;;;;;10.50;100.00;100134.53;1824390;79;26234;-74
2021/05/15 06:23:09;;;;;;;27.43;20.77;;;;;;;10.52;100.00;100133.69;1824487;79;26219;-74
2021/05/15 06:25:39;;;;;;;30.97;20.90;;;;;;;10.61;100.00;100133.23;1824259;79;26284;-74
2021/05/15 06:28:11;;;;;;;30.70;20.83;;;;;;;10.64;100.00;100132.65;1824307;79;26408;-74
2021/05/15 06:30:41;;;;;;;28.23;20.60;;;;;;;10.60;100.00;100130.22;1824603;79;26338;-73
2021/05/15 06:33:11;;;;;;;29.10;20.27;;;;;;;10.56;100.00;100126.95;1824642;79;26251;-73
2021/05/15 06:35:41;;;;;;;29.57;20.53;;;;;;;10.55;100.00;100123.35;1824339;79;26243;-74
2021/05/15 06:38:11;;;;;;;29.40;20.63;;;;;;;10.58;100.00;100123.30;1824405;79;26351;-74
2021/05/15 06:40:41;;;;;;;30.97;20.60;;;;;;;10.57;100.00;100117.51;1824267;79;26745;-74
2021/05/15 06:43:11;;;;;;;29.17;19.73;;;;;;;10.65;100.00;100119.03;1824407;79;26259;-74
2021/05/15 06:45:40;;;;;;;28.77;20.57;;;;;;;10.62;100.00;100114.63;1824395;79;26232;-74
2021/05/15 06:48:11;;;;;;;25.67;19.20;;;;;;;10.69;100.00;100111.73;1824466;79;26260;-74
2021/05/15 06:50:41;;;;;;;31.07;19.53;;;;;;;10.69;100.00;100106.19;1824422;79;26722;-74
2021/05/15 06:53:11;;;;;;;26.70;19.03;;;;;;;10.69;100.00;100109.52;1824396;79;26334;-73
2021/05/15 06:55:41;;;;;;;25.07;18.27;;;;;;;10.68;100.00;100105.91;1824228;79;26376;-74
2021/05/15 06:58:13;;;;;;;26.83;17.47;;;;;;;10.78;100.00;100109.88;1824317;79;26259;-73
2021/05/15 07:00:43;;;;;;;25.17;18.70;;;;;;;10.71;100.00;100112.24;1824538;78;26301;-74
2021/05/15 07:03:13;;;;;;;25.63;18.67;;;;;;;10.79;100.00;100107.94;1824236;79;26288;-74
2021/05/15 07:05:43;;;;;;;23.80;17.77;;;;;;;10.78;100.00;100107.70;1824389;79;26244;-74
2021/05/15 07:08:13;;;;;;;24.90;18.67;;;;;;;10.69;100.00;100104.80;1824434;79;26380;-74
2021/05/15 07:10:43;;;;;;;24.83;17.60;;;;;;;10.66;100.00;100098.44;1824384;79;26243;-74
2021/05/15 07:13:13;;;;;;;25.40;17.37;;;;;;;10.72;100.00;100090.85;1824346;79;26373;-74
2021/05/15 07:15:43;;;;;;;23.00;17.80;;;;;;;10.75;100.00;100097.17;1824378;79;26309;-75
2021/05/15 07:18:13;;;;;;;25.33;16.93;;;;;;;10.79;100.00;100094.87;1824375;79;26345;-74
2021/05/15 07:20:43;;;;;;;21.73;16.87;;;;;;;10.74;100.00;100101.11;1824190;79;26754;-74
2021/05/15 07:23:13;;;;;;;22.07;16.93;;;;;;;10.70;100.00;100088.92;1824396;79;26234;-75
2021/05/15 07:25:43;;;;;;;25.40;18.37;;;;;;;10.82;100.00;100093.45;1824206;79;26315;-75
2021/05/15 07:28:13;;;;;;;23.10;17.40;;;;;;;10.82;100.00;100087.34;1824195;79;26260;-76
2021/05/15 07:30:43;;;;;;;24.53;17.00;;;;;;;10.88;100.00;100081.10;1824227;79;26259;-76
2021/05/15 07:33:12;;;;;;;25.40;17.50;;;;;;;10.98;100.00;100081.48;1824357;79;26286;-75
2021/05/15 07:35:43;;;;;;;22.10;17.13;;;;;;;10.99;100.00;100076.20;1824264;79;26275;-75
2021/05/15 07:38:13;;;;;;;22.23;16.80;;;;;;;11.00;100.00;100077.82;1824314;79;26242;-76
2021/05/15 07:40:43;;;;;;;22.10;17.10;;;;;;;11.05;100.00;100070.78;1824168;79;26736;-77
2021/05/15 07:43:13;;;;;;;24.67;16.73;;;;;;;11.12;100.00;100065.09;1824404;79;26310;-77
2021/05/15 07:45:43;;;;;;;19.87;16.70;;;;;;;10.92;100.00;100064.91;1824230;79;26266;-76
2021/05/15 07:48:13;;;;;;;23.50;17.00;;;;;;;11.06;100.00;100067.70;1824421;79;26705;-78
2021/05/15 07:50:43;;;;;;;22.43;16.87;;;;;;;11.23;100.00;100072.66;1824287;79;26368;-76
2021/05/15 07:53:13;;;;;;;24.57;17.93;;;;;;;11.30;100.00;100069.72;1824570;79;26765;-78
2021/05/15 07:55:43;;;;;;;26.00;17.97;;;;;;;11.26;100.00;100058.95;1824281;79;26315;-77
2021/05/15 07:58:13;;;;;;;19.90;15.67;;;;;;;11.52;100.00;100057.86;1824527;79;26259;-78
2021/05/15 08:00:44;;;;;;;21.33;15.60;;;;;;;11.79;100.00;100055.08;1824522;79;26746;-78
2021/05/15 08:03:13;;;;;;;19.47;15.40;;;;;;;11.86;100.00;100049.89;1824273;79;26899;-77
2021/05/15 08:05:43;;;;;;;16.90;13.67;;;;;;;11.86;100.00;100046.28;1824288;79;26263;-77
2021/05/15 08:08:13;;;;;;;15.63;13.27;;;;;;;11.63;100.00;100050.95;1824285;79;26314;-76
2021/05/15 08:10:43;;;;;;;16.73;12.20;;;;;;;11.86;100.00;100047.67;1824472;78;26231;-76
2021/05/15 08:13:13;;;;;;;14.10;11.70;;;;;;;11.75;100.00;100045.70;1824136;79;26348;-76
2021/05/15 08:15:44;;;;;;;13.53;11.50;;;;;;;12.06;100.00;100046.39;1824366;79;26698;-76
2021/05/15 08:18:14;;;;;;;14.00;11.87;;;;;;;12.07;100.00;100046.63;1824223;79;26344;-76
2021/05/15 08:20:44;;;;;;;14.20;11.37;;;;;;;12.28;100.00;100047.22;1824209;79;26259;-76
2021/05/15 08:23:14;;;;;;;11.57;9.80;;;;;;;12.16;100.00;100042.78;1824242;79;26795;-76
2021/05/15 08:25:44;;;;;;;11.10;9.23;;;;;;;11.79;100.00;100049.51;1824257;79;26345;-76
2021/05/15 08:28:16;;;;;;;13.27;10.17;;;;;;;11.97;100.00;100043.53;1824238;79;26701;-76
2021/05/15 08:30:46;;;;;;;10.70;8.83;;;;;;;11.78;100.00;100045.08;1817991;79;26216;-76
2021/05/15 08:33:16;;;;;;;7.90;5.00;;;;;;;11.93;100.00;100041.70;1824281;79;26243;-76
2021/05/15 08:35:46;;;;;;;6.03;4.50;;;;;;;11.64;100.00;100041.45;1824384;79;26776;-76
2021/05/15 08:38:17;;;;;;;6.57;3.83;;;;;;;11.59;100.00;100040.20;1824241;79;26321;-76
2021/05/15 08:40:46;;;;;;;3.80;3.30;;;;;;;11.63;100.00;100038.44;1824198;79;26267;-75
2021/05/15 08:43:16;;;;;;;4.30;3.90;;;;;;;11.64;100.00;100035.89;1824176;79;26756;-76
2021/05/15 08:45:49;;;;;;;5.43;3.17;;;;;;;11.73;100.00;100032.66;1824178;79;26789;-76
2021/05/15 08:48:20;;;;;;;2.97;2.60;;;;;;;11.89;100.00;100034.55;1824241;79;26263;-76
2021/05/15 08:50:52;;;;;;;2.43;2.13;;;;;;;11.75;100.00;100035.97;1824225;79;26218;-76
2021/05/15 08:53:23;;;;;;;3.13;2.30;;;;;;;11.70;100.00;100034.66;1824142;79;26780;-75
2021/05/15 08:55:53;;;;;;;3.13;1.90;;;;;;;11.60;100.00;100033.48;1824125;79;26275;-75
2021/05/15 08:58:23;;;;;;;3.07;2.13;;;;;;;11.65;100.00;100031.98;1824213;79;26350;-76
2021/05/15 09:00:53;;;;;;;3.13;2.33;;;;;;;11.55;100.00;100032.80;1824059;79;26219;-76
2021/05/15 09:03:23;;;;;;;2.27;1.90;;;;;;;11.48;100.00;100032.38;1824191;79;26272;-76
2021/05/15 09:05:53;;;;;;;3.53;1.90;;;;;;;11.57;100.00;100027.73;1824251;79;26223;-76
2021/05/15 09:08:23;;;;;;;4.23;2.00;;;;;;;11.42;100.00;100021.35;1824208;79;26332;-75
2021/05/15 09:10:53;;;;;;;2.27;1.57;;;;;;;11.57;100.00;100018.81;1824226;79;26702;-75
2021/05/15 09:13:26;;;;;;;3.43;2.00;;;;;;;11.48;100.00;100010.13;1824240;79;26247;-75
2021/05/15 09:15:59;;;;;;;2.83;1.93;;;;;;;11.56;100.00;100014.38;1824237;79;26275;-76
2021/05/15 09:18:32;;;;;;;3.13;2.10;;;;;;;11.54;100.00;100015.28;1824331;79;26711;-76
2021/05/15 09:21:04;;;;;;;2.90;1.93;;;;;;;11.53;100.00;100008.62;1824193;79;27083;-76
2021/05/15 09:23:36;;;;;;;3.17;1.90;;;;;;;11.92;100.00;100006.65;1824156;79;26706;-75
2021/05/15 09:26:09;;;;;;;4.10;2.40;;;;;;;11.74;100.00;100009.84;1824150;79;26333;-75
2021/05/15 09:28:43;;;;;;;3.53;2.17;;;;;;;11.76;100.00;100004.23;1824305;79;26255;-76
2021/05/15 09:31:16;;;;;;;2.17;1.97;;;;;;;11.84;100.00;100008.23;1824354;79;26325;-76
2021/05/15 09:33:48;;;;;;;4.77;2.30;;;;;;;11.72;100.00;100002.39;1824209;79;26261;-75
2021/05/15 09:36:24;;;;;;;3.40;2.40;;;;;;;11.66;100.00;100005.82;1824110;79;26781;-76
2021/05/15 09:39:11;;;;;;;3.03;2.70;;;;;;;11.75;100.00;99997.02;1824290;79;26263;-75
2021/05/15 09:41:44;;;;;;;3.30;3.00;;;;;;;11.77;100.00;99991.95;1824139;79;26729;-76
2021/05/15 09:44:16;;;;;;;4.00;2.63;;;;;;;11.89;100.00;99989.20;1824204;79;26255;-76
2021/05/15 09:46:47;;;;;;;4.47;3.00;;;;;;;11.76;100.00;99986.16;1824130;79;26255;-76
2021/05/15 09:49:20;;;;;;;3.90;3.50;;;;;;;11.91;100.00;99987.73;1824104;79;26263;-76
2021/05/15 09:51:56;;;;;;;4.10;3.10;;;;;;;11.94;100.00;99981.53;1823652;78;26223;-76
2021/05/15 09:54:28;;;;;;;5.03;3.63;;;;;;;11.89;100.00;99978.06;1824121;79;26259;-76
2021/05/15 09:57:00;;;;;;;5.33;3.73;;;;;;;11.93;100.00;99981.86;1824203;79;26309;-75
2021/05/15 09:59:32;;;;;;;5.47;3.60;;;;;;;12.13;100.00;99973.83;1824212;79;26223;-76
2021/05/15 10:02:04;;;;;;;2.83;2.47;;;;;;;12.04;100.00;99983.25;1824162;79;26218;-76
2021/05/15 10:04:34;;;;;;;2.43;1.90;;;;;;;12.24;100.00;99980.77;1824185;79;26238;-75
2021/05/15 10:07:06;;;;;;;4.00;2.40;;;;;;;12.17;100.00;99968.44;1824149;79;26322;-76
2021/05/15 10:09:37;;;;;;;3.47;2.10;;;;;;;12.21;100.00;99969.45;1823182;78;26308;-75
2021/05/15 10:12:08;;;;;;;2.57;2.13;;;;;;;12.24;100.00;99968.24;1824073;79;26777;-76
2021/05/15 10:14:38;;;;;;;3.20;1.77;;;;;;;12.27;100.00;99968.19;1824321;79;26381;-76
2021/05/15 10:17:08;;;;;;;3.30;2.00;;;;;;;12.23;100.00;99963.01;1824242;79;26267;-76
2021/05/15 10:19:38;;;;;;;2.90;1.80;;;;;;;12.20;100.00;99962.23;1824365;79;26689;-76
2021/05/15 10:22:08;;;;;;;2.60;2.03;;;;;;;12.06;100.00;99962.89;1824373;79;26238;-75
2021/05/15 10:24:41;;;;;;;3.60;1.87;;;;;;;12.07;100.00;99967.30;1824266;79;26251;-76
2021/05/15 10:27:12;;;;;;;3.17;1.87;;;;;;;12.19;100.00;99962.00;1824287;78;26244;-76
2021/05/15 10:29:44;;;;;;;2.57;1.60;;;;;;;12.31;100.00;99956.10;1824323;79;26333;-76
2021/05/15 10:32:25;;;;;;;2.40;1.63;;;;;;;12.34;100.00;99957.42;1824314;79;26278;-76
2021/05/15 10:35:04;;;;;;;6.17;2.43;;;;;;;12.56;100.00;99957.95;1824251;79;26262;-76
2021/05/15 10:37:37;;;;;;;1.97;1.43;;;;;;;12.65;100.00;99958.25;1824220;79;26283;-75
2021/05/15 10:40:17;;;;;;;1.50;1.40;;;;;;;12.57;100.00;99953.45;1824311;79;26325;-76
2021/05/15 10:42:48;;;;;;;2.00;1.77;;;;;;;12.55;100.00;99951.55;1824297;79;26230;-76
2021/05/15 10:45:20;;;;;;;2.33;1.40;;;;;;;12.51;100.00;99953.91;1823192;78;26274;-76
2021/05/15 10:47:49;;;;;;;1.80;1.50;;;;;;;12.68;100.00;99949.80;1822506;78;26773;-76
2021/05/15 10:50:21;;;;;;;1.90;1.30;;;;;;;12.86;100.00;99942.34;1824390;79;26256;-76
2021/05/15 10:52:52;;;;;;;1.83;1.73;;;;;;;12.83;100.00;99945.78;1824359;79;26731;-76
2021/05/15 10:55:33;;;;;;;3.30;1.90;;;;;;;13.00;100.00;99943.05;1824387;79;26325;-76
2021/05/15 10:58:10;;;;;;;3.23;1.70;;;;;;;12.95;100.00;99932.87;1824262;79;26268;-76
2021/05/15 11:00:41;;;;;;;2.67;1.67;;;;;;;13.06;100.00;99936.17;1824275;79;26267;-76
2021/05/15 11:03:10;;;;;;;2.17;1.80;;;;;;;13.16;100.00;99931.72;1824283;79;26756;-76
2021/05/15 11:05:44;;;;;;;1.60;1.50;;;;;;;13.02;100.00;99930.42;1824325;79;26231;-76
2021/05/15 11:08:23;;;;;;;2.33;1.50;;;;;;;12.98;100.00;99928.03;1824284;79;26254;-76
2021/05/15 11:10:54;;;;;;;1.37;1.27;;;;;;;13.04;100.00;99931.50;1824265;79;26286;-77
2021/05/15 11:13:24;;;;;;;2.80;1.80;;;;;;;13.08;100.00;99931.10;1824181;79;26300;-77
2021/05/15 11:16:05;;;;;;;3.63;1.50;;;;;;;13.05;100.00;99927.58;1824274;79;26850;-76
2021/05/15 11:18:36;;;;;;;2.53;1.70;;;;;;;12.79;100.00;99928.89;1824194;79;26337;-77
2021/05/15 11:21:07;;;;;;;1.50;1.30;;;;;;;12.96;100.00;99930.91;1824214;79;26263;-77
2021/05/15 11:23:48;;;;;;;2.00;1.80;;;;;;;13.00;100.00;99929.12;1824105;79;26654;-77